^^
MeteoGriva-Weather Station Historical Data
Daily Summary for August 9, 2020 Units:  Metric    English   Both
Daily Weekly Monthly Yearly Custom
  High: Low: Average:
Temperature: 9.2 °C 6.9 °C 7.8 °C
Dew Point: 8.4 °C 6.3 °C 7.2 °C
Humidity: 99% 87.7% 96%
Wind Speed: 13.2km/h 0km/h 2.8km/h
Wind Gust: 28km/h - -
Wind- - SW
Pressure: 1011.2 hPa 1002.7 hPa -
Precipitation: 2.0 mm    
Historical Graphs
 
 
Tabular Data for August 9, 2020
Time Temperature Dew Point Pressure Wind Wind Speed Wind Gust Humidity Rainfall Rate (Hourly) solar
00:04 8.5 °C 8.4 °C 1011.2 hPa Calm     99% 0.0 mm 0 W/m2
00:09 8.4 °C 8.3 °C 1011.2 hPa Calm     99% 0.0 mm 0 W/m2
00:14 8.2 °C 8.1 °C 1011.2 hPa Calm     99% 0.0 mm 0 W/m2
00:19 8.1 °C 8 °C 1010.8 hPa Calm     99% 0.0 mm 0 W/m2
00:24 8.1 °C 8 °C 1011.2 hPa Calm     99% 0.0 mm 0 W/m2
00:29 8.1 °C 8 °C 1011.2 hPa Calm     99% 0.0 mm 0 W/m2
00:34 7.9 °C 7.8 °C 1011.2 hPa Calm     99% 0.0 mm 0 W/m2
00:39 7.9 °C 7.8 °C 1011.2 hPa Calm     99% 0.0 mm 0 W/m2
00:44 7.9 °C 7.8 °C 1011.2 hPa Calm     99% 0.0 mm 0 W/m2
00:49 7.8 °C 7.7 °C 1010.8 hPa Calm     99% 0.0 mm 0 W/m2
00:54 7.7 °C 7.7 °C 1010.8 hPa Calm     99% 0.0 mm 0 W/m2
00:59 7.7 °C 7.6 °C 1010.8 hPa Calm     99% 0.0 mm 0 W/m2
01:04 7.7 °C 7.6 °C 1010.8 hPa Calm     99% 0.0 mm 0 W/m2
01:09 7.6 °C 7.5 °C 1010.8 hPa Calm     99% 0.0 mm 0 W/m2
01:14 7.2 °C 7.1 °C 1010.8 hPa Calm     99% 0.0 mm 0 W/m2
01:19 7.1 °C 7 °C 1010.8 hPa Calm     99% 0.0 mm 0 W/m2
01:24 7.1 °C 7 °C 1010.8 hPa Calm     99% 0.0 mm 0 W/m2
01:29 7.2 °C 7.2 °C 1010.5 hPa Calm     99% 0.0 mm 0 W/m2
01:34 7.7 °C 7.7 °C 1010.5 hPa Calm     99% 0.0 mm 0 W/m2
01:39 7.8 °C 7.7 °C 1010.5 hPa Calm     99% 0.0 mm 0 W/m2
01:44 7.7 °C 7.7 °C 1010.5 hPa Calm     99% 0.0 mm 0 W/m2
01:49 7.7 °C 7.6 °C 1010.5 hPa Calm     99% 0.0 mm 0 W/m2
01:54 7.7 °C 7.6 °C 1010.2 hPa Calm     99% 0.0 mm 0 W/m2
01:59 7.6 °C 7.5 °C 1010.2 hPa Calm     99% 0.0 mm 0 W/m2
02:04 7.6 °C 7.5 °C 1010.2 hPa Calm     99% 0.0 mm 0 W/m2
02:09 7.5 °C 7.4 °C 1010.2 hPa Calm     99% 0.0 mm 0 W/m2
02:14 7.4 °C 7.3 °C 1010.2 hPa Calm     99% 0.0 mm 0 W/m2
02:19 7.3 °C 7.2 °C 1010.5 hPa Calm     99% 0.0 mm 0 W/m2
02:24 7.3 °C 7.2 °C 1010.2 hPa Calm     99% 0.0 mm 0 W/m2
02:29 7.3 °C 7.3 °C 1010.2 hPa Calm     99% 1.8 mm 0 W/m2
02:34 7.3 °C 7.2 °C 1010.5 hPa Calm     99% 1.8 mm 0 W/m2
02:39 7.3 °C 7.2 °C 1010.5 hPa Calm     99% 0.0 mm 0 W/m2
02:44 7.3 °C 7.2 °C 1010.2 hPa Calm     99% 0.0 mm 0 W/m2
02:49 7.3 °C 7.2 °C 1010.2 hPa Calm     99% 0.0 mm 0 W/m2
02:54 7.3 °C 7.2 °C 1010.2 hPa Calm     99% 1.8 mm 0 W/m2
02:59 7.3 °C 7.2 °C 1009.8 hPa Calm     99% 1.8 mm 0 W/m2
03:04 7.3 °C 7.2 °C 1009.5 hPa Calm     99% 1.8 mm 0 W/m2
03:09 7.2 °C 7.1 °C 1009.8 hPa Calm     99% 0.0 mm 0 W/m2
03:14 7.1 °C 7 °C 1009.5 hPa Calm     99% 0.0 mm 0 W/m2
03:19 6.9 °C 6.8 °C 1009.8 hPa Calm     99% 0.0 mm 0 W/m2
03:24 6.9 °C 6.8 °C 1009.5 hPa Calm     99% 0.0 mm 0 W/m2
03:29 6.9 °C 6.8 °C 1009.5 hPa Calm     99% 1.8 mm 0 W/m2
03:34 7 °C 6.8 °C 1009.5 hPa Calm     99% 1.8 mm 0 W/m2
03:39 6.9 °C 6.8 °C 1009.1 hPa Calm     99% 0.0 mm 0 W/m2
03:44 6.9 °C 6.8 °C 1009.1 hPa Calm     99% 0.0 mm 0 W/m2
03:49 6.9 °C 6.8 °C 1009.1 hPa Calm     99% 0.0 mm 0 W/m2
03:54 6.9 °C 6.8 °C 1009.1 hPa Calm     99% 0.0 mm 0 W/m2
03:59 6.9 °C 6.8 °C 1009.1 hPa Calm     99% 0.0 mm 0 W/m2
04:04 6.9 °C 6.8 °C 1009.1 hPa Calm     99% 1.8 mm 0 W/m2
04:09 6.9 °C 6.8 °C 1009.1 hPa Calm     99% 1.8 mm 0 W/m2
04:14 7 °C 6.9 °C 1009.1 hPa Calm     99% 0.0 mm 0 W/m2
04:19 7.1 °C 7 °C 1009.1 hPa Calm     99% 0.0 mm 0 W/m2
04:24 7 °C 6.9 °C 1009.1 hPa Calm     99% 0.0 mm 0 W/m2
04:29 7 °C 6.9 °C 1009.1 hPa Calm   4 km/h 99% 1.8 mm 0 W/m2
04:34 7 °C 6.9 °C 1009.1 hPa Calm   4 km/h 99% 1.8 mm 0 W/m2
04:39 7.1 °C 7 °C 1009.1 hPa Calm   4 km/h 99% 0.0 mm 0 W/m2
04:44 7.1 °C 7 °C 1009.1 hPa Calm   4 km/h 99% 0.0 mm 0 W/m2
04:49 7.1 °C 7 °C 1009.1 hPa North 0.3 km/h 7.9 km/h 99% 0.0 mm 0 W/m2
04:54 7.3 °C 7.2 °C 1009.1 hPa NE 0.3 km/h 7.9 km/h 99% 0.0 mm 0 W/m2
04:59 7.4 °C 7.3 °C 1009.1 hPa Calm     99% 0.0 mm 0 W/m2
05:04 7.4 °C 7.3 °C 1009.1 hPa NNE 2 km/h 12.2 km/h 99% 0.0 mm 0 W/m2
05:09 7.4 °C 7.3 °C 1009.1 hPa NNW 0.3 km/h 12.2 km/h 99% 0.0 mm 0 W/m2
05:14 7.4 °C 7.3 °C 1008.8 hPa North 1.7 km/h 12.2 km/h 99% 0.0 mm 0 W/m2
05:19 7.4 °C 7.3 °C 1008.8 hPa NNE 0.6 km/h 7.9 km/h 99% 0.0 mm 0 W/m2
05:24 7.3 °C 7.2 °C 1008.8 hPa NNW 0.1 km/h 4 km/h 99% 0.0 mm 0 W/m2
05:29 7.3 °C 7.2 °C 1008.5 hPa North 2.2 km/h 16.3 km/h 99% 0.0 mm 0 W/m2
05:34 7.3 °C 7.2 °C 1008.8 hPa North 2.6 km/h 16.3 km/h 99% 0.0 mm 0 W/m2
05:39 7.4 °C 7.3 °C 1008.8 hPa North 1.8 km/h 7.9 km/h 99% 0.0 mm 0 W/m2
05:44 7.4 °C 7.3 °C 1008.8 hPa NNW 0.6 km/h 7.9 km/h 99% 0.0 mm 0 W/m2
05:49 7.4 °C 7.3 °C 1008.8 hPa Calm     99% 0.0 mm 0 W/m2
05:54 7.5 °C 7.4 °C 1008.8 hPa NNW 0.7 km/h 7.9 km/h 99% 0.0 mm 0 W/m2
05:59 7.6 °C 7.5 °C 1008.8 hPa NNE 0.4 km/h 7.9 km/h 99% 0.0 mm 0 W/m2
06:04 7.6 °C 7.5 °C 1008.8 hPa Calm   4 km/h 99% 0.0 mm 0 W/m2
06:09 7.6 °C 7.5 °C 1008.8 hPa North 1.5 km/h 12.2 km/h 99% 0.0 mm 0 W/m2
06:14 7.6 °C 7.5 °C 1008.8 hPa Calm   4 km/h 99% 0.0 mm 0 W/m2
06:19 7.6 °C 7.5 °C 1008.5 hPa Calm     99% 0.0 mm 0 W/m2
06:24 7.6 °C 7.5 °C 1008.5 hPa NNW 1.1 km/h 7.9 km/h 99% 0.0 mm 0 W/m2
06:29 7.6 °C 7.5 °C 1008.5 hPa Calm   7.9 km/h 99% 0.0 mm 0 W/m2
06:34 7.6 °C 7.5 °C 1008.5 hPa NNW 1.2 km/h 12.2 km/h 99% 0.0 mm 0 W/m2
06:39 7.7 °C 7.6 °C 1008.5 hPa NNW 0.8 km/h 12.2 km/h 99% 0.0 mm 0 W/m2
06:44 7.6 °C 7.5 °C 1008.1 hPa Calm     99% 0.0 mm 0 W/m2
06:49 7.6 °C 7.5 °C 1008.1 hPa Calm     99% 0.0 mm 0 W/m2
06:54 7.6 °C 7.5 °C 1008.1 hPa Calm     99% 0.0 mm 0 W/m2
06:59 7.5 °C 7.4 °C 1008.1 hPa Calm     99% 0.0 mm 0 W/m2
07:04 7.5 °C 7.4 °C 1008.1 hPa Calm     99% 0.0 mm 0 W/m2
07:09 7.5 °C 7.4 °C 1008.5 hPa Calm     99% 0.0 mm 0 W/m2
07:14 7.4 °C 7.3 °C 1008.1 hPa Calm     99% 0.0 mm 0 W/m2
07:19 7.4 °C 7.3 °C 1008.5 hPa Calm     99% 0.0 mm 0 W/m2
07:24 7.4 °C 7.3 °C 1008.1 hPa Calm     99% 0.0 mm 3 W/m2
07:29 7.4 °C 7.3 °C 1008.1 hPa Calm     99% 0.0 mm 5 W/m2
07:34 7.4 °C 7.3 °C 1007.8 hPa Calm     99% 0.0 mm 7 W/m2
07:39 7.2 °C 7.1 °C 1007.8 hPa Calm     99% 0.0 mm 10 W/m2
07:44 7.2 °C 7.1 °C 1007.8 hPa Calm     99% 0.0 mm 12 W/m2
07:49 7.2 °C 7.1 °C 1007.8 hPa Calm     99% 0.0 mm 13 W/m2
07:54 7.1 °C 7 °C 1008.1 hPa Calm     99% 0.0 mm 17 W/m2
07:59 7.1 °C 7 °C 1008.1 hPa Calm     99% 0.0 mm 19 W/m2
08:04 7.1 °C 7 °C 1008.1 hPa Calm     99% 0.0 mm 19 W/m2
08:09 7.1 °C 7 °C 1008.1 hPa Calm     99% 0.0 mm 23 W/m2
08:14 7.1 °C 7 °C 1008.1 hPa Calm     99% 0.0 mm 27 W/m2
08:19 7.2 °C 7.1 °C 1007.8 hPa Calm     99% 0.0 mm 30 W/m2
08:24 7.2 °C 7.1 °C 1007.8 hPa Calm     99% 0.0 mm 36 W/m2
08:29 7.2 °C 7.1 °C 1007.8 hPa Calm     99% 0.0 mm 36 W/m2
08:34 7.2 °C 7.1 °C 1008.1 hPa Calm     99% 0.0 mm 33 W/m2
08:39 7.3 °C 7.2 °C 1007.8 hPa Calm     99% 0.0 mm 37 W/m2
08:44 7.3 °C 7.2 °C 1008.1 hPa Calm     99% 0.0 mm 37 W/m2
08:49 7.3 °C 7.2 °C 1008.1 hPa Calm     99% 0.0 mm 39 W/m2
08:54 7.4 °C 7.3 °C 1008.1 hPa Calm     99% 0.0 mm 40 W/m2
08:59 7.8 °C 7.7 °C 1008.1 hPa Calm     99% 0.0 mm 40 W/m2
09:04 7.7 °C 7.6 °C 1008.1 hPa Calm     99% 0.0 mm 39 W/m2
09:09 7.8 °C 7.7 °C 1008.1 hPa Calm     99% 0.0 mm 39 W/m2
09:14 7.8 °C 7.7 °C 1007.8 hPa North 1.6 km/h 7.9 km/h 99% 0.0 mm 41 W/m2
09:19 7.9 °C 7.8 °C 1007.8 hPa NW 2.4 km/h 7.9 km/h 99% 0.0 mm 46 W/m2
09:24 7.9 °C 7.8 °C 1007.5 hPa North 5.6 km/h 12.2 km/h 99% 0.0 mm 55 W/m2
09:29 7.9 °C 7.5 °C 1007.1 hPa NNW 7.7 km/h 24.1 km/h 97% 0.0 mm 63 W/m2
09:34 7.9 °C 7.6 °C 1007.5 hPa NNW 2.4 km/h 16.3 km/h 98.1% 0.0 mm 63 W/m2
09:39 8.1 °C 7.7 °C 1007.1 hPa North 2.9 km/h 7.9 km/h 97.4% 0.0 mm 63 W/m2
09:44 8.1 °C 7.2 °C 1007.1 hPa North 3 km/h 7.9 km/h 94.3% 0.0 mm 65 W/m2
09:49 8.1 °C 6.9 °C 1007.1 hPa North 4 km/h 12.2 km/h 92.1% 0.0 mm 73 W/m2
09:54 8.2 °C 7 °C 1007.5 hPa NNW 2.1 km/h 16.3 km/h 92% 0.0 mm 76 W/m2
09:59 8.5 °C 7.1 °C 1007.5 hPa North 5.2 km/h 16.3 km/h 91.1% 0.0 mm 75 W/m2
10:04 8.6 °C 7.1 °C 1007.5 hPa NNW 10.2 km/h 20.1 km/h 89.9% 0.0 mm 80 W/m2
10:09 8.6 °C 7.1 °C 1007.1 hPa NW 5.4 km/h 16.3 km/h 90.3% 0.0 mm 86 W/m2
10:14 8.6 °C 7 °C 1007.1 hPa North 6.4 km/h 20.1 km/h 89.6% 0.0 mm 98 W/m2
10:19 8.9 °C 7.2 °C 1007.1 hPa NNW 7.2 km/h 24.1 km/h 89% 0.0 mm 103 W/m2
10:24 8.9 °C 7.1 °C 1006.8 hPa NNW 8 km/h 24.1 km/h 88.6% 0.0 mm 99 W/m2
10:29 8.9 °C 7.2 °C 1006.8 hPa North 5.4 km/h 20.1 km/h 88.8% 0.0 mm 100 W/m2
10:34 8.9 °C 7.2 °C 1006.4 hPa NNW 5.8 km/h 20.1 km/h 89% 0.0 mm 103 W/m2
10:39 9.1 °C 7.3 °C 1006.4 hPa NNW 6.2 km/h 20.1 km/h 88.7% 0.0 mm 96 W/m2
10:44 9.1 °C 7.2 °C 1006.4 hPa North 5.4 km/h 16.3 km/h 88.1% 0.0 mm 96 W/m2
10:49 9.1 °C 7.2 °C 1006.4 hPa NNW 4.1 km/h 16.3 km/h 87.8% 0.0 mm 92 W/m2
10:54 9.1 °C 7.2 °C 1006.4 hPa NNE 1.2 km/h 7.9 km/h 87.7% 0.0 mm 94 W/m2
10:59 9.2 °C 7.3 °C 1006.8 hPa North 0.5 km/h 7.9 km/h 88% 0.0 mm 95 W/m2
11:04 9.2 °C 7.4 °C 1006.8 hPa Calm   7.9 km/h 88.6% 0.0 mm 100 W/m2
11:09 9.1 °C 7.4 °C 1006.8 hPa North 1.9 km/h 12.2 km/h 89% 0.0 mm 99 W/m2
11:14 9.1 °C 7.4 °C 1006.4 hPa ENE 2.6 km/h 16.3 km/h 88.8% 0.0 mm 91 W/m2
11:19 8.9 °C 7.7 °C 1006.8 hPa East 0.4 km/h 7.9 km/h 92% 0.0 mm 98 W/m2
11:24 8.9 °C 7.7 °C 1006.4 hPa East 0.5 km/h 7.9 km/h 92.6% 0.0 mm 98 W/m2
11:29 8.8 °C 7.8 °C 1006.8 hPa Calm   7.9 km/h 93.4% 0.0 mm 95 W/m2
11:34 8.8 °C 7.9 °C 1006.8 hPa South 0.2 km/h 4 km/h 94.4% 0.0 mm 92 W/m2
11:39 8.7 °C 7.7 °C 1006.4 hPa NE 1.3 km/h 7.9 km/h 93.2% 0.0 mm 91 W/m2
11:44 8.7 °C 7.7 °C 1006.4 hPa ENE 0.4 km/h 7.9 km/h 93.6% 0.0 mm 93 W/m2
11:46 8.7 °C 7.9 °C 1006.4 hPa ENE 0.5 km/h 4 km/h 94.7% 0.0 mm 96 W/m2
11:54 8.6 °C 8 °C 1006.1 hPa ESE 1.2 km/h 7.9 km/h 96% 0.0 mm 103 W/m2
11:59 8.3 °C 7.8 °C 1006.1 hPa NW 0.3 km/h 16.3 km/h 96% 0.0 mm 105 W/m2
12:04 8.3 °C 7.5 °C 1006.1 hPa NNE 0.4 km/h 16.3 km/h 95% 0.0 mm 110 W/m2
12:09 8.3 °C 7.4 °C 1006.4 hPa Calm   7.9 km/h 94.1% 0.0 mm 109 W/m2
12:14 8.4 °C 7.3 °C 1006.1 hPa NE 1.3 km/h 12.2 km/h 92.8% 0.0 mm 100 W/m2
12:19 8.6 °C 7.5 °C 1006.4 hPa NNE 1.9 km/h 12.2 km/h 92.6% 0.0 mm 104 W/m2
12:24 8.6 °C 7.7 °C 1006.4 hPa North 7.3 km/h 16.3 km/h 93.8% 0.0 mm 106 W/m2
12:29 8.6 °C 7.6 °C 1006.1 hPa North 8 km/h 20.1 km/h 93.6% 0.0 mm 113 W/m2
12:34 8.6 °C 7.5 °C 1006.1 hPa North 10.2 km/h 24.1 km/h 93.1% 0.0 mm 113 W/m2
12:39 8.4 °C 7.3 °C 1006.4 hPa NNW 9.2 km/h 24.1 km/h 92.7% 0.0 mm 107 W/m2
12:44 8.4 °C 7.3 °C 1006.1 hPa North 7.2 km/h 20.1 km/h 92.7% 0.0 mm 102 W/m2
12:49 8.4 °C 7.1 °C 1006.1 hPa North 12.7 km/h 28 km/h 91.6% 0.0 mm 98 W/m2
12:54 8.4 °C 7 °C 1006.1 hPa NNW 8.5 km/h 24.1 km/h 91% 0.0 mm 98 W/m2
12:59 8.4 °C 7 °C 1006.1 hPa NNE 11.8 km/h 24.1 km/h 90.8% 0.0 mm 98 W/m2
13:04 8.4 °C 6.9 °C 1006.1 hPa North 10.3 km/h 24.1 km/h 90.6% 0.0 mm 97 W/m2
13:09 8.3 °C 6.8 °C 1006.1 hPa NNE 8.2 km/h 20.1 km/h 90.1% 0.0 mm 96 W/m2
13:14 8.3 °C 6.9 °C 1006.1 hPa North 6.7 km/h 12.2 km/h 90.6% 0.0 mm 94 W/m2
13:19 8.4 °C 7 °C 1006.1 hPa North 9 km/h 20.1 km/h 91% 0.0 mm 91 W/m2
13:24 8.4 °C 6.9 °C 1006.1 hPa North 8.9 km/h 24.1 km/h 90.7% 0.0 mm 86 W/m2
13:29 8.4 °C 6.9 °C 1005.8 hPa North 8.2 km/h 20.1 km/h 90% 0.0 mm 105 W/m2
13:34 8.4 °C 6.9 °C 1005.8 hPa North 10.8 km/h 20.1 km/h 90% 0.0 mm 105 W/m2
13:39 8.4 °C 6.9 °C 1005.4 hPa North 12.6 km/h 24.1 km/h 90% 0.0 mm 103 W/m2
13:44 8.4 °C 6.9 °C 1005.4 hPa North 9.5 km/h 20.1 km/h 90% 0.0 mm 107 W/m2
13:49 8.4 °C 6.9 °C 1005.4 hPa North 8.6 km/h 24.1 km/h 90% 0.0 mm 96 W/m2
13:54 8.4 °C 6.9 °C 1005.8 hPa North 10 km/h 20.1 km/h 90% 0.0 mm 103 W/m2
13:59 8.4 °C 6.9 °C 1005.4 hPa NNW 12.4 km/h 24.1 km/h 90% 0.0 mm 103 W/m2
14:04 8.4 °C 6.9 °C 1005.4 hPa NNW 8.5 km/h 24.1 km/h 90% 0.0 mm 96 W/m2
14:09 8.3 °C 6.8 °C 1005.1 hPa North 10.2 km/h 20.1 km/h 90.4% 0.0 mm 95 W/m2
14:14 8.3 °C 6.9 °C 1005.1 hPa North 9.2 km/h 16.3 km/h 91% 0.0 mm 91 W/m2
14:19 8.2 °C 6.8 °C 1005.4 hPa North 10 km/h 24.1 km/h 91% 0.0 mm 86 W/m2
14:24 8 °C 6.7 °C 1005.1 hPa North 7.8 km/h 16.3 km/h 91.3% 0.0 mm 87 W/m2
14:29 8 °C 6.8 °C 1004.7 hPa North 7.9 km/h 20.1 km/h 92% 0.0 mm 93 W/m2
14:34 8 °C 6.8 °C 1004.7 hPa North 11.1 km/h 24.1 km/h 92% 0.0 mm 92 W/m2
14:39 8 °C 6.8 °C 1004.7 hPa North 11.2 km/h 20.1 km/h 92% 0.0 mm 84 W/m2
14:44 7.9 °C 6.6 °C 1004.7 hPa North 8.3 km/h 20.1 km/h 91.7% 0.0 mm 80 W/m2
14:49 7.9 °C 6.7 °C 1004.7 hPa North 10.9 km/h 20.1 km/h 92% 0.0 mm 71 W/m2
14:54 7.9 °C 6.7 °C 1004.7 hPa North 10 km/h 20.1 km/h 92% 0.0 mm 65 W/m2
14:59 7.9 °C 6.7 °C 1004.7 hPa North 9.2 km/h 24.1 km/h 92% 0.0 mm 62 W/m2
15:04 7.8 °C 6.7 °C 1004.7 hPa North 10 km/h 20.1 km/h 92% 0.0 mm 68 W/m2
15:09 7.8 °C 6.7 °C 1004.7 hPa North 11.4 km/h 24.1 km/h 92.9% 0.0 mm 72 W/m2
15:14 7.8 °C 6.9 °C 1004.7 hPa NNW 9.8 km/h 20.1 km/h 93.8% 0.0 mm 71 W/m2
15:19 7.7 °C 7 °C 1004.4 hPa North 11.2 km/h 20.1 km/h 95% 0.0 mm 76 W/m2
15:24 7.6 °C 7 °C 1004.4 hPa North 13.2 km/h 24.1 km/h 96.1% 0.0 mm 73 W/m2
15:29 7.6 °C 7.2 °C 1004.4 hPa North 10.4 km/h 24.1 km/h 97% 0.0 mm 52 W/m2
15:34 7.6 °C 7.2 °C 1004.1 hPa North 11.1 km/h 24.1 km/h 96.9% 0.0 mm 53 W/m2
15:39 7.5 °C 6.9 °C 1004.4 hPa North 9.3 km/h 20.1 km/h 96.1% 0.0 mm 49 W/m2
15:44 7.6 °C 6.9 °C 1004.4 hPa North 10.2 km/h 24.1 km/h 95.3% 0.0 mm 47 W/m2
15:49 7.6 °C 6.7 °C 1004.4 hPa NNW 7.8 km/h 20.1 km/h 94% 0.0 mm 45 W/m2
15:54 7.6 °C 6.7 °C 1004.1 hPa NNW 6.3 km/h 12.2 km/h 94% 0.0 mm 45 W/m2
15:59 7.7 °C 6.8 °C 1004.4 hPa North 1.9 km/h 12.2 km/h 94% 0.0 mm 46 W/m2
16:04 7.8 °C 6.9 °C 1004.4 hPa North 4.8 km/h 16.3 km/h 94% 0.0 mm 49 W/m2
16:09 7.8 °C 6.9 °C 1004.4 hPa NNW 2.2 km/h 12.2 km/h 94% 0.0 mm 53 W/m2
16:14 7.8 °C 6.9 °C 1004.4 hPa NNW 6.2 km/h 16.3 km/h 94% 0.0 mm 61 W/m2
16:19 7.8 °C 6.8 °C 1004.1 hPa North 2.1 km/h 12.2 km/h 93.4% 0.0 mm 65 W/m2
16:24 8 °C 6.9 °C 1004.1 hPa Calm   7.9 km/h 93% 0.0 mm 64 W/m2
16:29 8 °C 6.9 °C 1004.1 hPa NNW 0.5 km/h 12.2 km/h 93% 0.0 mm 67 W/m2
16:34 8 °C 7.1 °C 1004.1 hPa NNE 1 km/h 7.9 km/h 93.8% 0.0 mm 73 W/m2
16:39 8.1 °C 7.1 °C 1004.1 hPa North 2.4 km/h 12.2 km/h 93.5% 0.0 mm 73 W/m2
16:44 8.2 °C 7.1 °C 1004.1 hPa NNE 4.2 km/h 12.2 km/h 93% 0.0 mm 65 W/m2
16:49 8.2 °C 7.2 °C 1003.7 hPa NNW 1.1 km/h 12.2 km/h 93.8% 0.0 mm 45 W/m2
16:54 8.1 °C 7.3 °C 1004.1 hPa North 0.8 km/h 12.2 km/h 94.8% 0.0 mm 39 W/m2
16:59 8.1 °C 7.3 °C 1003.7 hPa NNE 1.8 km/h 7.9 km/h 95.2% 0.0 mm 48 W/m2
17:04 7.8 °C 7 °C 1003.7 hPa North 3.6 km/h 12.2 km/h 95.1% 0.0 mm 51 W/m2
17:09 7.8 °C 7.1 °C 1004.1 hPa North 5.9 km/h 12.2 km/h 95.7% 0.0 mm 51 W/m2
17:14 7.8 °C 7.2 °C 1004.1 hPa NNE 0.4 km/h 12.2 km/h 96% 0.0 mm 45 W/m2
17:19 7.8 °C 7.2 °C 1004.1 hPa NNE 1.8 km/h 12.2 km/h 96% 0.0 mm 39 W/m2
17:24 7.7 °C 7.1 °C 1004.1 hPa North 0.6 km/h 12.2 km/h 96% 0.0 mm 36 W/m2
17:29 7.7 °C 7.1 °C 1004.1 hPa NE 0.1 km/h 7.9 km/h 96% 0.0 mm 32 W/m2
17:34 7.7 °C 7.1 °C 1004.1 hPa Calm     96.2% 0.0 mm 24 W/m2
17:39 7.7 °C 6.9 °C 1004.1 hPa NNE 2.9 km/h 16.3 km/h 95% 0.0 mm 20 W/m2
17:44 8 °C 7 °C 1003.7 hPa North 5.9 km/h 16.3 km/h 93.5% 0.0 mm 18 W/m2
17:49 8 °C 6.8 °C 1003.7 hPa North 6.8 km/h 16.3 km/h 92.4% 0.0 mm 14 W/m2
17:54 8 °C 6.8 °C 1003.7 hPa North 8 km/h 16.3 km/h 92% 0.0 mm 9 W/m2
17:59 8 °C 6.8 °C 1003.7 hPa North 4.2 km/h 12.2 km/h 92% 0.0 mm 6 W/m2
18:04 8.1 °C 6.8 °C 1003.7 hPa North 2.3 km/h 7.9 km/h 91.2% 0.0 mm 3 W/m2
18:09 8.1 °C 6.9 °C 1003.4 hPa NNE 1.1 km/h 12.2 km/h 91.8% 0.0 mm 2 W/m2
18:14 8.1 °C 6.8 °C 1003.7 hPa NNW 1.2 km/h 12.2 km/h 91.4% 0.0 mm 0 W/m2
18:19 8.1 °C 6.7 °C 1003.7 hPa NNE 2 km/h 7.9 km/h 91.2% 0.0 mm 0 W/m2
18:24 7.9 °C 6.7 °C 1003.7 hPa North 0.8 km/h 7.9 km/h 92.3% 0.0 mm 0 W/m2
18:29 7.9 °C 6.9 °C 1003.7 hPa Calm   7.9 km/h 93.7% 0.0 mm 0 W/m2
18:34 7.9 °C 7.1 °C 1003.7 hPa Calm     94.9% 0.0 mm 0 W/m2
18:39 7.8 °C 7.1 °C 1003.7 hPa Calm     95.7% 0.0 mm 0 W/m2
18:44 7.5 °C 6.8 °C 1003.7 hPa Calm     95.6% 0.0 mm 0 W/m2
18:49 7.5 °C 6.9 °C 1003.7 hPa Calm     96.1% 0.0 mm 0 W/m2
18:54 7.5 °C 7.2 °C 1003.7 hPa Calm     97.4% 0.0 mm 0 W/m2
18:59 7.4 °C 7.3 °C 1003.7 hPa Calm     98.6% 0.0 mm 0 W/m2
19:04 7.1 °C 7 °C 1003.7 hPa Calm     99% 0.0 mm 0 W/m2
19:09 7.1 °C 7 °C 1003.7 hPa Calm     99% 0.0 mm 0 W/m2
19:14 7.1 °C 7 °C 1003.7 hPa Calm     99% 0.0 mm 0 W/m2
19:19 7.1 °C 7 °C 1004.1 hPa Calm   4 km/h 99% 0.0 mm 0 W/m2
19:24 7.2 °C 6.9 °C 1003.7 hPa NE 2.7 km/h 12.2 km/h 98.1% 0.0 mm 0 W/m2
19:29 7.2 °C 6.6 °C 1004.1 hPa NNE 2.2 km/h 12.2 km/h 95.7% 0.0 mm 0 W/m2
19:34 7.3 °C 6.3 °C 1004.1 hPa NNE 2 km/h 16.3 km/h 93.3% 0.0 mm 0 W/m2
19:39 7.5 °C 6.5 °C 1004.1 hPa NNE 6.1 km/h 20.1 km/h 93.4% 0.0 mm 0 W/m2
19:44 8 °C 6.9 °C 1004.1 hPa North 5.1 km/h 16.3 km/h 93% 0.0 mm 0 W/m2
19:49 8 °C 7 °C 1004.1 hPa NNE 6.5 km/h 16.3 km/h 93.2% 0.0 mm 0 W/m2
19:54 8 °C 6.7 °C 1003.7 hPa NNE 3 km/h 16.3 km/h 91.4% 0.0 mm 0 W/m2
19:59 8 °C 6.6 °C 1003.7 hPa NNE 4.5 km/h 16.3 km/h 91.1% 0.0 mm 0 W/m2
20:04 8.2 °C 7 °C 1003.7 hPa NNW 2.7 km/h 12.2 km/h 92.1% 0.0 mm 0 W/m2
20:09 8.1 °C 7 °C 1003.7 hPa North 5.9 km/h 20.1 km/h 92.7% 0.0 mm 0 W/m2
20:14 8.1 °C 6.9 °C 1003.7 hPa North 5.7 km/h 20.1 km/h 92.4% 0.0 mm 0 W/m2
20:19 8.1 °C 7.1 °C 1003.7 hPa NNW 5.4 km/h 20.1 km/h 93.3% 0.0 mm 0 W/m2
20:24 8 °C 7.1 °C 1003.7 hPa NNW 5.3 km/h 24.1 km/h 94.2% 0.0 mm 0 W/m2
20:29 7.9 °C 7 °C 1003.7 hPa North 4.4 km/h 24.1 km/h 94% 1.8 mm 0 W/m2
20:34 7.9 °C 7.1 °C 1003.7 hPa NNE 5 km/h 20.1 km/h 94.7% 1.8 mm 0 W/m2
20:39 7.9 °C 7.1 °C 1003.7 hPa NNE 6.4 km/h 20.1 km/h 95.2% 1.8 mm 0 W/m2
20:44 7.8 °C 7.2 °C 1003.7 hPa NNW 7.1 km/h 20.1 km/h 95.8% 0.0 mm 0 W/m2
20:49 7.8 °C 7.1 °C 1003.4 hPa North 4.3 km/h 20.1 km/h 95.7% 0.0 mm 0 W/m2
20:54 7.8 °C 7.3 °C 1003.4 hPa North 6.3 km/h 24.1 km/h 96.6% 0.0 mm 0 W/m2
20:59 7.8 °C 6.9 °C 1003.0 hPa NNW 8.4 km/h 24.1 km/h 94% 0.0 mm 0 W/m2
21:04 8.2 °C 7.2 °C 1003.0 hPa North 5.2 km/h 20.1 km/h 93.6% 0.0 mm 0 W/m2
21:09 8.3 °C 7.1 °C 1003.0 hPa NNW 3.8 km/h 20.1 km/h 92.1% 0.0 mm 0 W/m2
21:14 8.3 °C 7.1 °C 1003.0 hPa NNW 5.3 km/h 16.3 km/h 91.8% 0.0 mm 0 W/m2
21:19 8.4 °C 7.1 °C 1003.0 hPa North 8.8 km/h 24.1 km/h 91.7% 0.0 mm 0 W/m2
21:24 8.6 °C 7.3 °C 1003.0 hPa North 3.3 km/h 24.1 km/h 91.7% 0.0 mm 0 W/m2
21:29 8.6 °C 7.2 °C 1003.4 hPa North 9.8 km/h 24.1 km/h 90.6% 0.0 mm 0 W/m2
21:34 8.6 °C 7.2 °C 1003.0 hPa NNW 6.6 km/h 20.1 km/h 91% 0.0 mm 0 W/m2
21:39 8.6 °C 7.2 °C 1003.0 hPa North 5.1 km/h 20.1 km/h 90.8% 0.0 mm 0 W/m2
21:44 8.6 °C 7.1 °C 1003.0 hPa NNW 7.1 km/h 28 km/h 90.1% 0.0 mm 0 W/m2
21:49 8.5 °C 7.2 °C 1003.0 hPa NNW 4.3 km/h 20.1 km/h 91.5% 0.0 mm 0 W/m2
21:54 8.5 °C 7.4 °C 1003.0 hPa NW 5 km/h 16.3 km/h 92.8% 0.0 mm 0 W/m2
21:59 8.5 °C 7.5 °C 1003.0 hPa North 3.6 km/h 16.3 km/h 93.6% 0.0 mm 0 W/m2
22:04 8.3 °C 7.2 °C 1003.0 hPa North 5.7 km/h 20.1 km/h 93% 0.0 mm 0 W/m2
22:09 8.3 °C 7.2 °C 1003.0 hPa NNE 1.8 km/h 12.2 km/h 93.2% 0.0 mm 0 W/m2
22:14 8.2 °C 7.1 °C 1003.0 hPa NW 2.6 km/h 16.3 km/h 92.7% 0.0 mm 0 W/m2
22:19 8.3 °C 7.2 °C 1003.0 hPa North 4.2 km/h 12.2 km/h 92.7% 0.0 mm 0 W/m2
22:24 8.2 °C 7.2 °C 1003.4 hPa NNE 1.6 km/h 12.2 km/h 93% 0.0 mm 0 W/m2
22:29 8.2 °C 7.2 °C 1003.4 hPa North 2.8 km/h 7.9 km/h 93.2% 0.0 mm 0 W/m2
22:34 8.2 °C 7.2 °C 1003.4 hPa North 2.8 km/h 7.9 km/h 93.6% 0.0 mm 0 W/m2
22:39 8.2 °C 7 °C 1003.4 hPa NNE 4.8 km/h 16.3 km/h 92.2% 0.0 mm 0 W/m2
22:44 8.3 °C 7 °C 1003.4 hPa NNW 0.8 km/h 7.9 km/h 91.9% 0.0 mm 0 W/m2
22:49 8.3 °C 8.1 °C 1003.4 hPa Calm     98.4% 0.0 mm 0 W/m2
22:54 8.1 °C 8 °C 1003.4 hPa Calm     99% 0.0 mm 0 W/m2
22:59 8 °C 7.9 °C 1003.0 hPa Calm     99% 0.0 mm 0 W/m2
23:04 8 °C 7.1 °C 1003.0 hPa NNW 0.4 km/h 7.9 km/h 94.6% 0.0 mm 0 W/m2
23:09 8.1 °C 7 °C 1003.0 hPa NW 0.3 km/h 7.9 km/h 93% 0.0 mm 0 W/m2
23:14 8.1 °C 7 °C 1003.0 hPa Calm   7.9 km/h 92.9% 0.0 mm 0 W/m2
23:19 8.1 °C 7.2 °C 1003.0 hPa Calm     94.3% 0.0 mm 0 W/m2
23:24 7.9 °C 7.2 °C 1003.0 hPa Calm     95.6% 0.0 mm 0 W/m2
23:29 7.8 °C 6.8 °C 1003.0 hPa Calm   4 km/h 93.4% 0.0 mm 0 W/m2
23:34 7.9 °C 6.7 °C 1003.0 hPa Calm   7.9 km/h 92.7% 0.0 mm 0 W/m2
23:39 7.9 °C 7.2 °C 1002.7 hPa Calm   7.9 km/h 95.2% 0.0 mm 0 W/m2
23:44 7.7 °C 7.5 °C 1002.7 hPa Calm     98.2% 0.0 mm 0 W/m2
23:49 7.5 °C 7.4 °C 1002.7 hPa Calm     99% 1.8 mm 0 W/m2
23:54 7.4 °C 7.3 °C 1003.0 hPa Calm     99% 1.8 mm 0 W/m2
23:59 7.3 °C 7.2 °C 1003.0 hPa Calm     99% 1.8 mm 0 W/m2
Juneau County Weather
Compliments of Weather Underground - 2 mb